sensor_id;sensor_type;location;lat;lon;timestamp;pressure;altitude;pressure_sealevel;temperature;humidity
35489;BME280;21602;55.670;37.578;2022-08-19T00:01:54;99805.69;;;23.91;48.44
35489;BME280;21602;55.670;37.578;2022-08-19T00:04:21;99803.94;;;23.73;49.04
35489;BME280;21602;55.670;37.578;2022-08-19T00:06:47;99802.56;;;23.62;49.64
35489;BME280;21602;55.670;37.578;2022-08-19T00:09:15;99809.41;;;23.59;49.81
35489;BME280;21602;55.670;37.578;2022-08-19T00:11:42;99810.84;;;23.57;50.02
35489;BME280;21602;55.670;37.578;2022-08-19T00:14:10;99813.25;;;23.58;50.37
35489;BME280;21602;55.670;37.578;2022-08-19T00:16:38;99811.78;;;23.52;50.49
35489;BME280;21602;55.670;37.578;2022-08-19T00:19:04;99820.56;;;23.49;50.24
35489;BME280;21602;55.670;37.578;2022-08-19T00:21:30;99819.47;;;23.50;50.60
35489;BME280;21602;55.670;37.578;2022-08-19T00:23:57;99816.69;;;23.64;50.76
35489;BME280;21602;55.670;37.578;2022-08-19T00:26:25;99809.72;;;23.71;50.61
35489;BME280;21602;55.670;37.578;2022-08-19T00:28:51;99811.84;;;23.74;50.39
35489;BME280;21602;55.670;37.578;2022-08-19T00:31:16;99824.94;;;23.72;50.32
35489;BME280;21602;55.670;37.578;2022-08-19T00:33:43;99823.34;;;23.71;50.08
35489;BME280;21602;55.670;37.578;2022-08-19T00:36:09;99818.69;;;23.72;50.19
35489;BME280;21602;55.670;37.578;2022-08-19T00:38:37;99820.13;;;23.69;50.36
35489;BME280;21602;55.670;37.578;2022-08-19T00:41:04;99822.72;;;23.74;50.13
35489;BME280;21602;55.670;37.578;2022-08-19T00:43:30;99819.50;;;23.72;49.86
35489;BME280;21602;55.670;37.578;2022-08-19T00:45:56;99821.63;;;23.62;49.93
35489;BME280;21602;55.670;37.578;2022-08-19T00:48:22;99824.97;;;23.59;49.96
35489;BME280;21602;55.670;37.578;2022-08-19T00:50:50;99833.13;;;23.59;50.43
35489;BME280;21602;55.670;37.578;2022-08-19T00:53:21;99836.88;;;23.63;50.35
35489;BME280;21602;55.670;37.578;2022-08-19T00:55:49;99840.72;;;23.62;50.33
35489;BME280;21602;55.670;37.578;2022-08-19T00:58:17;99842.44;;;23.58;50.11
35489;BME280;21602;55.670;37.578;2022-08-19T01:00:45;99841.66;;;23.43;50.20
35489;BME280;21602;55.670;37.578;2022-08-19T01:03:15;99852.19;;;23.36;50.33
35489;BME280;21602;55.670;37.578;2022-08-19T01:05:43;99852.81;;;23.33;50.75
35489;BME280;21602;55.670;37.578;2022-08-19T01:08:11;99854.72;;;23.33;50.91
35489;BME280;21602;55.670;37.578;2022-08-19T01:10:42;99862.56;;;23.34;50.91
35489;BME280;21602;55.670;37.578;2022-08-19T01:13:09;99859.53;;;23.36;51.14
35489;BME280;21602;55.670;37.578;2022-08-19T01:15:42;99860.94;;;23.47;50.67
35489;BME280;21602;55.670;37.578;2022-08-19T01:18:12;99863.34;;;23.48;50.88
35489;BME280;21602;55.670;37.578;2022-08-19T01:20:40;99855.69;;;23.50;51.08
35489;BME280;21602;55.670;37.578;2022-08-19T01:23:07;99860.13;;;23.46;50.67
35489;BME280;21602;55.670;37.578;2022-08-19T01:25:48;99857.94;;;23.35;50.76
35489;BME280;21602;55.670;37.578;2022-08-19T01:28:22;99857.75;;;23.31;51.10
35489;BME280;21602;55.670;37.578;2022-08-19T01:30:49;99854.94;;;23.22;51.01
35489;BME280;21602;55.670;37.578;2022-08-19T01:33:15;99861.91;;;23.15;51.44
35489;BME280;21602;55.670;37.578;2022-08-19T01:35:41;99863.03;;;23.14;51.26
35489;BME280;21602;55.670;37.578;2022-08-19T01:38:17;99860.09;;;23.10;51.21
35489;BME280;21602;55.670;37.578;2022-08-19T01:40:44;99851.22;;;23.05;51.65
35489;BME280;21602;55.670;37.578;2022-08-19T01:43:10;99846.09;;;23.03;51.40
35489;BME280;21602;55.670;37.578;2022-08-19T01:45:36;99849.31;;;23.05;51.57
35489;BME280;21602;55.670;37.578;2022-08-19T01:48:04;99848.94;;;22.98;51.88
35489;BME280;21602;55.670;37.578;2022-08-19T01:50:32;99844.53;;;22.83;51.66
35489;BME280;21602;55.670;37.578;2022-08-19T01:52:58;99844.84;;;22.82;52.12
35489;BME280;21602;55.670;37.578;2022-08-19T01:55:25;99841.53;;;22.71;51.83
35489;BME280;21602;55.670;37.578;2022-08-19T01:57:56;99835.97;;;22.62;52.20
35489;BME280;21602;55.670;37.578;2022-08-19T02:00:24;99839.59;;;22.58;52.36
35489;BME280;21602;55.670;37.578;2022-08-19T02:02:51;99834.03;;;22.49;52.36
35489;BME280;21602;55.670;37.578;2022-08-19T02:05:17;99821.44;;;22.39;53.09
35489;BME280;21602;55.670;37.578;2022-08-19T02:07:44;99824.84;;;22.31;52.91
35489;BME280;21602;55.670;37.578;2022-08-19T02:10:13;99824.25;;;22.34;53.20
35489;BME280;21602;55.670;37.578;2022-08-19T02:12:40;99831.31;;;22.35;52.79
35489;BME280;21602;55.670;37.578;2022-08-19T02:15:06;99838.97;;;22.33;53.33
35489;BME280;21602;55.670;37.578;2022-08-19T02:17:33;99864.47;;;22.37;53.29
35489;BME280;21602;55.670;37.578;2022-08-19T02:19:59;99876.94;;;22.38;53.50
35489;BME280;21602;55.670;37.578;2022-08-19T02:22:25;99862.94;;;22.45;53.35
35489;BME280;21602;55.670;37.578;2022-08-19T02:24:52;99875.47;;;22.60;53.11
35489;BME280;21602;55.670;37.578;2022-08-19T02:27:18;99873.75;;;22.64;53.04
35489;BME280;21602;55.670;37.578;2022-08-19T02:29:46;99874.28;;;22.66;52.98
35489;BME280;21602;55.670;37.578;2022-08-19T02:32:12;99869.94;;;22.51;52.80
35489;BME280;21602;55.670;37.578;2022-08-19T02:34:39;99869.28;;;22.40;53.33
35489;BME280;21602;55.670;37.578;2022-08-19T02:37:05;99875.84;;;22.39;53.52
35489;BME280;21602;55.670;37.578;2022-08-19T02:39:31;99865.47;;;22.41;53.79
35489;BME280;21602;55.670;37.578;2022-08-19T02:41:56;99866.19;;;22.47;53.47
35489;BME280;21602;55.670;37.578;2022-08-19T02:44:24;99870.03;;;22.60;53.97
35489;BME280;21602;55.670;37.578;2022-08-19T02:46:50;99865.91;;;22.76;53.48
35489;BME280;21602;55.670;37.578;2022-08-19T02:49:16;99869.28;;;23.00;53.35
35489;BME280;21602;55.670;37.578;2022-08-19T02:51:44;99875.31;;;23.25;52.68
35489;BME280;21602;55.670;37.578;2022-08-19T02:54:12;99866.31;;;23.38;52.39
35489;BME280;21602;55.670;37.578;2022-08-19T02:56:40;99873.88;;;23.41;52.17
35489;BME280;21602;55.670;37.578;2022-08-19T02:59:07;99876.91;;;23.26;51.54
35489;BME280;21602;55.670;37.578;2022-08-19T03:01:37;99867.78;;;23.08;52.07
35489;BME280;21602;55.670;37.578;2022-08-19T03:04:06;99879.78;;;22.93;52.34
35489;BME280;21602;55.670;37.578;2022-08-19T03:06:37;99869.47;;;22.90;52.72
35489;BME280;21602;55.670;37.578;2022-08-19T03:09:03;99872.88;;;22.82;52.45
35489;BME280;21602;55.670;37.578;2022-08-19T03:11:31;99874.88;;;22.77;53.17
35489;BME280;21602;55.670;37.578;2022-08-19T03:13:58;99868.75;;;22.71;53.31
35489;BME280;21602;55.670;37.578;2022-08-19T03:16:28;99878.50;;;22.72;52.88
35489;BME280;21602;55.670;37.578;2022-08-19T03:18:56;99882.50;;;22.93;53.12
35489;BME280;21602;55.670;37.578;2022-08-19T03:21:24;99892.78;;;23.10;52.69
35489;BME280;21602;55.670;37.578;2022-08-19T03:23:54;99887.75;;;23.17;52.58
35489;BME280;21602;55.670;37.578;2022-08-19T03:26:20;99890.16;;;23.19;52.28
35489;BME280;21602;55.670;37.578;2022-08-19T03:28:46;99891.25;;;23.18;52.38
35489;BME280;21602;55.670;37.578;2022-08-19T03:31:17;99887.63;;;23.09;53.02
35489;BME280;21602;55.670;37.578;2022-08-19T03:33:44;99891.84;;;23.15;52.37
35489;BME280;21602;55.670;37.578;2022-08-19T03:36:15;99892.38;;;23.17;52.72
35489;BME280;21602;55.670;37.578;2022-08-19T03:38:44;99886.19;;;23.25;52.60
35489;BME280;21602;55.670;37.578;2022-08-19T03:41:16;99878.00;;;23.39;52.53
35489;BME280;21602;55.670;37.578;2022-08-19T03:43:43;99876.50;;;23.46;52.29
35489;BME280;21602;55.670;37.578;2022-08-19T03:46:21;99874.91;;;23.32;52.14
35489;BME280;21602;55.670;37.578;2022-08-19T03:48:49;99870.06;;;23.15;52.54
35489;BME280;21602;55.670;37.578;2022-08-19T03:53:48;99879.63;;;22.71;52.94
35489;BME280;21602;55.670;37.578;2022-08-19T03:56:14;99875.78;;;22.58;53.74
35489;BME280;21602;55.670;37.578;2022-08-19T03:58:41;99882.13;;;22.54;54.17
35489;BME280;21602;55.670;37.578;2022-08-19T04:01:09;99879.19;;;22.36;54.28
35489;BME280;21602;55.670;37.578;2022-08-19T04:03:35;99877.25;;;22.37;54.73
35489;BME280;21602;55.670;37.578;2022-08-19T04:06:17;99891.06;;;22.54;55.34
35489;BME280;21602;55.670;37.578;2022-08-19T04:08:45;99892.31;;;22.62;54.54
35489;BME280;21602;55.670;37.578;2022-08-19T04:11:14;99887.38;;;22.64;54.64
35489;BME280;21602;55.670;37.578;2022-08-19T04:13:41;99892.41;;;22.57;54.41
35489;BME280;21602;55.670;37.578;2022-08-19T04:16:09;99891.16;;;22.49;54.66
35489;BME280;21602;55.670;37.578;2022-08-19T04:18:37;99891.47;;;22.47;54.76
35489;BME280;21602;55.670;37.578;2022-08-19T04:21:03;99897.00;;;22.42;55.10
35489;BME280;21602;55.670;37.578;2022-08-19T04:23:29;99893.41;;;22.47;54.91
35489;BME280;21602;55.670;37.578;2022-08-19T04:25:55;99894.59;;;22.55;55.08
35489;BME280;21602;55.670;37.578;2022-08-19T04:28:25;99897.66;;;22.67;54.78
35489;BME280;21602;55.670;37.578;2022-08-19T04:30:52;99894.25;;;22.75;54.75
35489;BME280;21602;55.670;37.578;2022-08-19T04:33:23;99889.91;;;22.74;54.28
35489;BME280;21602;55.670;37.578;2022-08-19T04:35:51;99904.53;;;22.78;54.24
35489;BME280;21602;55.670;37.578;2022-08-19T04:38:19;99906.06;;;22.84;54.05
35489;BME280;21602;55.670;37.578;2022-08-19T04:40:47;99909.41;;;22.95;54.01
35489;BME280;21602;55.670;37.578;2022-08-19T04:43:33;99914.06;;;22.94;53.81
35489;BME280;21602;55.670;37.578;2022-08-19T04:46:07;99909.09;;;22.96;54.43
35489;BME280;21602;55.670;37.578;2022-08-19T04:48:34;99911.22;;;22.99;54.18
35489;BME280;21602;55.670;37.578;2022-08-19T04:51:04;99904.56;;;22.92;54.03
35489;BME280;21602;55.670;37.578;2022-08-19T04:53:33;99908.63;;;22.94;54.20
35489;BME280;21602;55.670;37.578;2022-08-19T04:56:05;99910.81;;;22.92;54.33
35489;BME280;21602;55.670;37.578;2022-08-19T04:58:33;99916.25;;;22.92;54.09
35489;BME280;21602;55.670;37.578;2022-08-19T05:00:59;99912.53;;;22.88;54.42
35489;BME280;21602;55.670;37.578;2022-08-19T05:03:28;99909.19;;;22.91;54.01
35489;BME280;21602;55.670;37.578;2022-08-19T05:06:05;99908.09;;;22.92;54.12
35489;BME280;21602;55.670;37.578;2022-08-19T05:08:34;99915.25;;;23.02;54.25
35489;BME280;21602;55.670;37.578;2022-08-19T05:10:59;99919.19;;;23.10;54.57
35489;BME280;21602;55.670;37.578;2022-08-19T05:13:25;99909.41;;;23.09;54.08
35489;BME280;21602;55.670;37.578;2022-08-19T05:15:56;99918.09;;;23.11;54.12
35489;BME280;21602;55.670;37.578;2022-08-19T05:18:23;99913.44;;;23.25;54.17
35489;BME280;21602;55.670;37.578;2022-08-19T05:21:09;99919.41;;;23.27;53.98
35489;BME280;21602;55.670;37.578;2022-08-19T05:23:54;99915.88;;;23.13;53.92
35489;BME280;21602;55.670;37.578;2022-08-19T05:26:20;99909.91;;;23.11;54.34
35489;BME280;21602;55.670;37.578;2022-08-19T05:28:45;99913.06;;;23.18;54.64
35489;BME280;21602;55.670;37.578;2022-08-19T05:31:11;99910.91;;;23.29;54.06
35489;BME280;21602;55.670;37.578;2022-08-19T05:33:38;99903.75;;;23.33;53.91
35489;BME280;21602;55.670;37.578;2022-08-19T05:36:05;99913.22;;;23.35;54.10
35489;BME280;21602;55.670;37.578;2022-08-19T05:38:33;99904.94;;;23.40;54.30
35489;BME280;21602;55.670;37.578;2022-08-19T05:41:11;99909.44;;;23.59;53.60
35489;BME280;21602;55.670;37.578;2022-08-19T05:43:37;99906.56;;;23.55;53.53
35489;BME280;21602;55.670;37.578;2022-08-19T05:46:04;99906.94;;;23.48;53.45
35489;BME280;21602;55.670;37.578;2022-08-19T05:48:35;99908.56;;;23.49;53.37
35489;BME280;21602;55.670;37.578;2022-08-19T05:51:05;99907.59;;;23.45;53.82
35489;BME280;21602;55.670;37.578;2022-08-19T05:53:34;99910.38;;;23.40;53.72
35489;BME280;21602;55.670;37.578;2022-08-19T05:56:08;99913.22;;;23.35;54.22
35489;BME280;21602;55.670;37.578;2022-08-19T05:58:35;99909.06;;;23.51;54.07
35489;BME280;21602;55.670;37.578;2022-08-19T06:01:02;99913.91;;;23.68;53.81
35489;BME280;21602;55.670;37.578;2022-08-19T06:03:32;99910.53;;;23.85;53.40
35489;BME280;21602;55.670;37.578;2022-08-19T06:05:59;99910.22;;;23.87;53.00
35489;BME280;21602;55.670;37.578;2022-08-19T06:08:26;99909.41;;;23.86;53.56
35489;BME280;21602;55.670;37.578;2022-08-19T06:10:53;99908.69;;;23.94;53.33
35489;BME280;21602;55.670;37.578;2022-08-19T06:13:19;99912.16;;;24.09;52.99
35489;BME280;21602;55.670;37.578;2022-08-19T06:15:46;99916.88;;;24.17;53.02
35489;BME280;21602;55.670;37.578;2022-08-19T06:18:13;99916.25;;;24.20;52.98
35489;BME280;21602;55.670;37.578;2022-08-19T06:20:40;99917.09;;;24.07;52.73
35489;BME280;21602;55.670;37.578;2022-08-19T06:23:06;99916.50;;;24.10;52.93
35489;BME280;21602;55.670;37.578;2022-08-19T06:25:32;99914.25;;;24.12;53.03
35489;BME280;21602;55.670;37.578;2022-08-19T06:27:57;99915.81;;;24.04;52.54
35489;BME280;21602;55.670;37.578;2022-08-19T06:30:23;99919.72;;;24.12;53.07
35489;BME280;21602;55.670;37.578;2022-08-19T06:32:49;99915.50;;;24.06;52.76
35489;BME280;21602;55.670;37.578;2022-08-19T06:35:15;99922.03;;;24.18;52.98
35489;BME280;21602;55.670;37.578;2022-08-19T06:37:42;99908.94;;;24.29;52.98
35489;BME280;21602;55.670;37.578;2022-08-19T06:40:08;99921.28;;;24.49;52.21
35489;BME280;21602;55.670;37.578;2022-08-19T06:42:36;99912.28;;;24.48;52.21
35489;BME280;21602;55.670;37.578;2022-08-19T06:45:04;99915.88;;;24.58;51.95
35489;BME280;21602;55.670;37.578;2022-08-19T06:47:31;99920.38;;;24.62;51.84
35489;BME280;21602;55.670;37.578;2022-08-19T06:49:58;99916.09;;;24.70;51.60
35489;BME280;21602;55.670;37.578;2022-08-19T06:52:32;99908.91;;;24.74;51.35
35489;BME280;21602;55.670;37.578;2022-08-19T06:54:59;99916.44;;;24.77;51.69
35489;BME280;21602;55.670;37.578;2022-08-19T06:57:26;99912.28;;;24.80;51.39
35489;BME280;21602;55.670;37.578;2022-08-19T06:59:52;99917.00;;;24.96;50.82
35489;BME280;21602;55.670;37.578;2022-08-19T07:02:18;99919.59;;;24.93;50.93
35489;BME280;21602;55.670;37.578;2022-08-19T07:04:44;99921.50;;;24.92;50.69
35489;BME280;21602;55.670;37.578;2022-08-19T07:07:12;99918.25;;;24.82;51.27
35489;BME280;21602;55.670;37.578;2022-08-19T07:09:41;99926.34;;;24.95;50.68
35489;BME280;21602;55.670;37.578;2022-08-19T07:12:10;99929.59;;;25.06;50.48
35489;BME280;21602;55.670;37.578;2022-08-19T07:14:38;99924.84;;;25.12;50.11
35489;BME280;21602;55.670;37.578;2022-08-19T07:17:06;99924.53;;;25.22;49.88
35489;BME280;21602;55.670;37.578;2022-08-19T07:19:33;99925.19;;;25.27;50.02
35489;BME280;21602;55.670;37.578;2022-08-19T07:22:01;99928.38;;;25.12;49.63
35489;BME280;21602;55.670;37.578;2022-08-19T07:24:28;99915.13;;;25.06;49.77
35489;BME280;21602;55.670;37.578;2022-08-19T07:26:56;99920.66;;;25.14;49.84
35489;BME280;21602;55.670;37.578;2022-08-19T07:29:27;99921.22;;;25.42;49.21
35489;BME280;21602;55.670;37.578;2022-08-19T07:31:53;99926.72;;;25.60;48.90
35489;BME280;21602;55.670;37.578;2022-08-19T07:34:23;99927.56;;;25.86;48.54
35489;BME280;21602;55.670;37.578;2022-08-19T07:36:49;99929.50;;;25.94;47.65
35489;BME280;21602;55.670;37.578;2022-08-19T07:39:19;99931.09;;;25.95;47.75
35489;BME280;21602;55.670;37.578;2022-08-19T07:41:46;99934.00;;;25.90;47.59
35489;BME280;21602;55.670;37.578;2022-08-19T07:44:13;99937.69;;;25.86;47.25
35489;BME280;21602;55.670;37.578;2022-08-19T07:46:42;99933.16;;;25.72;47.72
35489;BME280;21602;55.670;37.578;2022-08-19T07:49:10;99932.69;;;25.96;47.58
35489;BME280;21602;55.670;37.578;2022-08-19T07:51:43;99934.97;;;25.94;47.52
35489;BME280;21602;55.670;37.578;2022-08-19T07:54:10;99938.69;;;25.98;46.51
35489;BME280;21602;55.670;37.578;2022-08-19T07:56:37;99937.72;;;26.03;46.39
35489;BME280;21602;55.670;37.578;2022-08-19T07:59:03;99943.34;;;25.89;45.91
35489;BME280;21602;55.670;37.578;2022-08-19T08:01:33;99939.13;;;25.92;45.89
35489;BME280;21602;55.670;37.578;2022-08-19T08:03:59;99929.00;;;26.10;45.57
35489;BME280;21602;55.670;37.578;2022-08-19T08:06:43;99930.44;;;26.16;45.67
35489;BME280;21602;55.670;37.578;2022-08-19T08:09:40;99933.34;;;26.11;45.88
35489;BME280;21602;55.670;37.578;2022-08-19T08:12:42;99945.59;;;25.96;46.50
35489;BME280;21602;55.670;37.578;2022-08-19T08:15:05;99938.50;;;25.95;46.57
35489;BME280;21602;55.670;37.578;2022-08-19T08:17:33;99960.22;;;25.91;46.66
35489;BME280;21602;55.670;37.578;2022-08-19T08:20:04;99938.34;;;25.91;46.90
35489;BME280;21602;55.670;37.578;2022-08-19T08:22:32;99941.41;;;25.81;47.44
35489;BME280;21602;55.670;37.578;2022-08-19T08:25:19;99945.88;;;25.77;47.46
35489;BME280;21602;55.670;37.578;2022-08-19T08:27:46;99952.50;;;25.76;47.59
35489;BME280;21602;55.670;37.578;2022-08-19T08:30:19;99952.34;;;25.90;47.40
35489;BME280;21602;55.670;37.578;2022-08-19T08:32:45;99949.91;;;26.05;47.30
35489;BME280;21602;55.670;37.578;2022-08-19T08:35:14;99940.75;;;26.01;47.58
35489;BME280;21602;55.670;37.578;2022-08-19T08:37:40;99944.44;;;26.05;47.18
35489;BME280;21602;55.670;37.578;2022-08-19T08:40:12;99944.31;;;26.02;47.05
35489;BME280;21602;55.670;37.578;2022-08-19T08:42:50;99952.50;;;25.93;47.18
35489;BME280;21602;55.670;37.578;2022-08-19T08:45:18;99944.31;;;26.02;46.89
35489;BME280;21602;55.670;37.578;2022-08-19T08:47:48;99944.28;;;26.11;47.39
35489;BME280;21602;55.670;37.578;2022-08-19T08:50:31;99943.81;;;26.17;46.89
35489;BME280;21602;55.670;37.578;2022-08-19T08:53:02;99943.50;;;26.19;46.83
35489;BME280;21602;55.670;37.578;2022-08-19T08:55:31;99945.09;;;26.20;46.44
35489;BME280;21602;55.670;37.578;2022-08-19T09:00:46;99951.56;;;25.98;44.91
35489;BME280;21602;55.670;37.578;2022-08-19T09:03:18;99941.06;;;25.91;44.79
35489;BME280;21602;55.670;37.578;2022-08-19T09:06:04;99944.31;;;26.02;44.73
35489;BME280;21602;55.670;37.578;2022-08-19T09:11:31;99949.94;;;26.23;44.26
35489;BME280;21602;55.670;37.578;2022-08-19T09:16:50;99945.13;;;26.02;44.59
35489;BME280;21602;55.670;37.578;2022-08-19T09:19:17;99952.81;;;26.00;45.05
35489;BME280;21602;55.670;37.578;2022-08-19T09:21:43;99954.72;;;25.74;45.05
35489;BME280;21602;55.670;37.578;2022-08-19T09:24:09;99951.69;;;25.75;45.10
35489;BME280;21602;55.670;37.578;2022-08-19T09:26:35;99950.59;;;25.94;45.09
35489;BME280;21602;55.670;37.578;2022-08-19T09:29:01;99954.75;;;26.00;45.72
35489;BME280;21602;55.670;37.578;2022-08-19T09:31:31;99954.94;;;26.21;45.35
35489;BME280;21602;55.670;37.578;2022-08-19T09:33:58;99948.16;;;26.18;45.17
35489;BME280;21602;55.670;37.578;2022-08-19T09:36:26;99939.94;;;26.36;45.22
35489;BME280;21602;55.670;37.578;2022-08-19T09:38:55;99950.09;;;26.35;45.73
35489;BME280;21602;55.670;37.578;2022-08-19T09:41:23;99943.31;;;26.41;45.49
35489;BME280;21602;55.670;37.578;2022-08-19T09:43:51;99943.94;;;26.55;45.16
35489;BME280;21602;55.670;37.578;2022-08-19T09:46:19;99945.25;;;26.49;45.18
35489;BME280;21602;55.670;37.578;2022-08-19T09:48:47;99950.88;;;26.44;44.94
35489;BME280;21602;55.670;37.578;2022-08-19T09:51:23;99952.97;;;26.39;44.74
35489;BME280;21602;55.670;37.578;2022-08-19T09:53:50;99949.75;;;26.37;44.91
35489;BME280;21602;55.670;37.578;2022-08-19T09:56:19;99960.88;;;26.40;43.56
35489;BME280;21602;55.670;37.578;2022-08-19T09:58:45;99956.69;;;26.51;43.09
35489;BME280;21602;55.670;37.578;2022-08-19T10:01:23;99948.00;;;26.49;41.10
35489;BME280;21602;55.670;37.578;2022-08-19T10:03:53;99956.50;;;26.39;40.24
35489;BME280;21602;55.670;37.578;2022-08-19T10:06:21;99960.06;;;26.48;40.40
35489;BME280;21602;55.670;37.578;2022-08-19T10:08:47;99973.38;;;26.67;40.36
35489;BME280;21602;55.670;37.578;2022-08-19T10:11:13;99973.25;;;26.64;39.50
35489;BME280;21602;55.670;37.578;2022-08-19T10:13:42;99985.13;;;26.76;38.53
35489;BME280;21602;55.670;37.578;2022-08-19T10:16:12;99971.41;;;26.85;37.81
35489;BME280;21602;55.670;37.578;2022-08-19T10:18:38;99976.72;;;26.90;37.57
35489;BME280;21602;55.670;37.578;2022-08-19T10:21:13;99972.91;;;26.74;36.83
35489;BME280;21602;55.670;37.578;2022-08-19T10:23:42;99988.38;;;26.70;36.83
35489;BME280;21602;55.670;37.578;2022-08-19T10:26:15;99974.38;;;26.63;36.81
35489;BME280;21602;55.670;37.578;2022-08-19T10:28:41;99981.13;;;26.65;36.11
35489;BME280;21602;55.670;37.578;2022-08-19T10:31:15;99974.97;;;26.77;36.14
35489;BME280;21602;55.670;37.578;2022-08-19T10:33:43;99979.28;;;26.87;35.77
35489;BME280;21602;55.670;37.578;2022-08-19T10:36:12;99967.06;;;26.84;34.86
35489;BME280;21602;55.670;37.578;2022-08-19T10:38:45;99978.50;;;26.77;35.08
35489;BME280;21602;55.670;37.578;2022-08-19T10:41:15;99976.28;;;26.79;34.59
35489;BME280;21602;55.670;37.578;2022-08-19T10:43:41;99974.16;;;26.85;34.60
35489;BME280;21602;55.670;37.578;2022-08-19T10:46:09;99977.66;;;26.94;34.32
35489;BME280;21602;55.670;37.578;2022-08-19T10:48:35;99978.63;;;26.98;33.94
35489;BME280;21602;55.670;37.578;2022-08-19T10:51:02;99975.06;;;27.06;33.81
35489;BME280;21602;55.670;37.578;2022-08-19T10:53:47;99964.16;;;26.89;33.63
35489;BME280;21602;55.670;37.578;2022-08-19T10:56:12;99972.06;;;26.82;33.90
35489;BME280;21602;55.670;37.578;2022-08-19T10:58:57;99979.47;;;26.81;33.85
35489;BME280;21602;55.670;37.578;2022-08-19T11:01:24;99986.34;;;26.96;33.38
35489;BME280;21602;55.670;37.578;2022-08-19T11:03:50;99990.84;;;27.10;33.64
35489;BME280;21602;55.670;37.578;2022-08-19T11:06:16;99946.13;;;26.88;33.24
35489;BME280;21602;55.670;37.578;2022-08-19T11:08:42;99989.81;;;26.76;33.44
35489;BME280;21602;55.670;37.578;2022-08-19T11:11:11;99977.22;;;26.84;33.76
35489;BME280;21602;55.670;37.578;2022-08-19T11:13:39;99969.63;;;26.89;33.56
35489;BME280;21602;55.670;37.578;2022-08-19T11:16:08;99966.75;;;26.77;33.44
35489;BME280;21602;55.670;37.578;2022-08-19T11:18:36;99971.44;;;26.76;33.50
35489;BME280;21602;55.670;37.578;2022-08-19T11:21:09;99963.69;;;26.87;33.34
35489;BME280;21602;55.670;37.578;2022-08-19T11:23:36;99970.16;;;26.74;33.55
35489;BME280;21602;55.670;37.578;2022-08-19T11:26:01;99964.69;;;26.74;33.69
35489;BME280;21602;55.670;37.578;2022-08-19T11:28:28;99973.88;;;26.69;33.87
35489;BME280;21602;55.670;37.578;2022-08-19T11:30:54;99965.81;;;26.73;34.10
35489;BME280;21602;55.670;37.578;2022-08-19T11:33:19;99960.47;;;26.76;34.25
35489;BME280;21602;55.670;37.578;2022-08-19T11:35:45;99946.97;;;26.63;34.13
35489;BME280;21602;55.670;37.578;2022-08-19T11:38:11;99969.72;;;26.54;33.92
35489;BME280;21602;55.670;37.578;2022-08-19T11:40:37;99972.28;;;26.68;33.78
35489;BME280;21602;55.670;37.578;2022-08-19T11:43:03;99966.13;;;26.80;33.72
35489;BME280;21602;55.670;37.578;2022-08-19T11:45:30;99967.41;;;26.83;33.26
35489;BME280;21602;55.670;37.578;2022-08-19T11:47:56;99974.28;;;26.97;33.49
35489;BME280;21602;55.670;37.578;2022-08-19T11:50:23;99977.66;;;26.94;34.09
35489;BME280;21602;55.670;37.578;2022-08-19T11:52:49;99972.81;;;27.00;34.31
35489;BME280;21602;55.670;37.578;2022-08-19T11:55:15;99961.69;;;26.96;34.55
35489;BME280;21602;55.670;37.578;2022-08-19T11:57:41;99973.31;;;27.02;34.74
35489;BME280;21602;55.670;37.578;2022-08-19T12:00:09;99981.34;;;27.16;34.68
35489;BME280;21602;55.670;37.578;2022-08-19T12:02:37;99974.03;;;27.20;34.89
35489;BME280;21602;55.670;37.578;2022-08-19T12:05:04;99967.66;;;27.16;34.97
35489;BME280;21602;55.670;37.578;2022-08-19T12:07:30;99965.53;;;27.21;35.06
35489;BME280;21602;55.670;37.578;2022-08-19T12:09:59;99953.16;;;27.06;35.86
35489;BME280;21602;55.670;37.578;2022-08-19T12:12:26;99948.16;;;27.00;36.44
35489;BME280;21602;55.670;37.578;2022-08-19T12:14:53;99950.75;;;26.96;36.68
35489;BME280;21602;55.670;37.578;2022-08-19T12:17:25;99962.84;;;26.95;37.01
35489;BME280;21602;55.670;37.578;2022-08-19T12:19:52;99956.19;;;27.05;37.08
35489;BME280;21602;55.670;37.578;2022-08-19T12:22:18;99969.28;;;26.99;37.23
35489;BME280;21602;55.670;37.578;2022-08-19T12:24:44;99950.47;;;26.80;37.68
35489;BME280;21602;55.670;37.578;2022-08-19T12:27:10;99953.84;;;26.86;37.67
35489;BME280;21602;55.670;37.578;2022-08-19T12:29:36;99944.66;;;26.82;38.27
35489;BME280;21602;55.670;37.578;2022-08-19T12:32:02;99950.31;;;26.77;38.50
35489;BME280;21602;55.670;37.578;2022-08-19T12:34:29;99942.88;;;26.86;38.28
35489;BME280;21602;55.670;37.578;2022-08-19T12:37:00;99943.66;;;26.95;38.36
35489;BME280;21602;55.670;37.578;2022-08-19T12:39:26;99952.00;;;27.08;38.20
35489;BME280;21602;55.670;37.578;2022-08-19T12:41:52;99935.41;;;27.04;38.54
35489;BME280;21602;55.670;37.578;2022-08-19T12:44:19;99953.16;;;26.98;38.83
35489;BME280;21602;55.670;37.578;2022-08-19T12:46:44;99959.91;;;27.09;38.63
35489;BME280;21602;55.670;37.578;2022-08-19T12:49:10;99955.63;;;27.29;38.65
35489;BME280;21602;55.670;37.578;2022-08-19T12:51:36;99953.66;;;27.38;38.57
35489;BME280;21602;55.670;37.578;2022-08-19T12:54:02;99948.84;;;27.35;38.64
35489;BME280;21602;55.670;37.578;2022-08-19T12:56:29;99949.88;;;27.22;38.59
35489;BME280;21602;55.670;37.578;2022-08-19T12:58:54;99943.44;;;27.18;38.69
35489;BME280;21602;55.670;37.578;2022-08-19T13:01:21;99947.81;;;27.10;38.67
35489;BME280;21602;55.670;37.578;2022-08-19T13:03:46;99959.91;;;27.09;38.96
35489;BME280;21602;55.670;37.578;2022-08-19T13:06:13;99964.75;;;27.03;39.05
35489;BME280;21602;55.670;37.578;2022-08-19T13:08:39;99959.28;;;27.03;39.05